Airport View

Enter AWOS ICAO identifier for current METAR.

ex. KFNL

KLHW 181056Z AUTO 02006KT 10SM SCT120 07/02 A3043 RMK AO2 SLP308 T00680019 $

18 Jan 2020 11:24

Other Area AWOS: KSVN - KSAV - KCWV - KJES

TAF KSVN 180500Z 1805/1911 09012KT 9999 SCT100 BKN150 QNH3040INS BECMG 1815/1816 18009KT 9999 BKN020 BKN100 OVC150 QNH3020INS BECMG 1820/1821 19009KT 9999 BKN015 BKN090 540153 QNH3000INS BECMG 1903/1904 22006KT 8000 -SHRA BKN015 OVC020 QNH2990INS TX11/1819Z TNM02/1811Z